Time,TemperatureF,DewpointF,PressureIn,WindDirection,WindDirectionDegrees,WindSpeedMPH,WindSpeedGustMPH,Humidity,HourlyPrecipIn,Conditions,Clouds,dailyrainin,SolarRadiationWatts/m^2,SoftwareType,DateUTC
2013-02-08 00:01:00,27.0,15.0,-100.00,SSE,157,2.0,4.0,60,0.00,,,0.00,0.000000,,2013-02-08 08:01:00,
2013-02-08 00:52:00,24.0,12.0,-100.00,SW,217,1.0,4.0,60,0.00,,,0.00,0.000000,,2013-02-08 08:52:00,
2013-02-08 01:02:00,24.0,12.0,-100.00,SW,217,1.0,4.0,60,0.00,,,0.00,0.000000,,2013-02-08 09:02:00,
2013-02-08 01:52:00,23.0,11.0,-100.00,North,359,1.0,5.0,60,0.00,,,0.00,0.000000,,2013-02-08 09:52:00,
2013-02-08 02:01:00,23.0,11.0,-100.00,North,359,1.0,5.0,60,0.00,,,0.00,0.000000,,2013-02-08 10:01:00,
2013-02-08 02:52:00,21.0,10.0,-100.00,ENE,74,1.0,4.0,61,-99.99,,,0.00,0.000000,,2013-02-08 10:52:00,
2013-02-08 03:01:00,21.0,10.0,-100.00,ENE,74,1.0,4.0,61,-99.99,,,0.00,0.000000,,2013-02-08 11:01:00,
2013-02-08 03:52:00,21.0,10.0,-100.00,SSW,211,1.0,4.0,61,-99.99,,,0.00,0.000000,,2013-02-08 11:52:00,
2013-02-08 04:01:00,21.0,10.0,-100.00,SSW,211,1.0,4.0,61,-99.99,,,0.00,0.000000,,2013-02-08 12:01:00,
2013-02-08 04:52:00,21.0,10.0,-100.00,SSE,147,2.0,5.0,61,0.00,,,0.00,0.000000,,2013-02-08 12:52:00,
2013-02-08 05:01:00,21.0,10.0,-100.00,SSE,147,2.0,5.0,61,0.00,,,0.00,0.000000,,2013-02-08 13:01:00,
2013-02-08 05:52:00,21.0,10.0,-100.00,ESE,108,2.0,4.0,61,0.00,,,0.00,0.000000,,2013-02-08 13:52:00,
2013-02-08 06:02:00,21.0,10.0,-100.00,ESE,108,2.0,4.0,61,0.00,,,0.00,0.000000,,2013-02-08 14:02:00,
2013-02-08 06:52:00,21.0,10.0,-100.00,NE,38,2.0,6.0,61,0.00,,,0.00,0.000000,,2013-02-08 14:52:00,
2013-02-08 07:02:00,21.0,10.0,-100.00,NE,38,2.0,6.0,61,0.00,,,0.00,0.000000,,2013-02-08 15:02:00,
2013-02-08 07:52:00,23.0,11.0,-100.00,SE,133,1.0,4.0,60,0.00,,,0.00,8.000000,,2013-02-08 15:52:00,
2013-02-08 08:01:00,23.0,11.0,-100.00,SE,133,1.0,4.0,60,0.00,,,0.00,8.000000,,2013-02-08 16:01:00,
2013-02-08 08:52:00,32.0,19.0,-100.00,SE,145,1.0,3.0,59,-99.99,,,0.00,102.000000,,2013-02-08 16:52:00,
2013-02-08 09:03:00,32.0,19.0,-100.00,SE,145,1.0,3.0,59,-99.99,,,0.00,102.000000,,2013-02-08 17:03:00,
2013-02-08 09:52:00,42.0,26.0,-100.00,SW,236,5.0,12.0,53,0.00,,,0.00,406.000000,,2013-02-08 17:52:00,
2013-02-08 10:01:00,42.0,26.0,-100.00,SW,236,5.0,12.0,53,0.00,,,0.00,406.000000,,2013-02-08 18:01:00,
2013-02-08 10:11:00,42.0,26.0,-100.00,SW,236,5.0,12.0,53,0.00,,,0.00,406.000000,,2013-02-08 18:11:00,
2013-02-08 10:23:00,42.0,26.0,-100.00,SW,236,5.0,12.0,53,0.00,,,0.00,406.000000,,2013-02-08 18:23:00,
2013-02-08 10:52:00,42.0,25.0,-100.00,WSW,252,6.0,13.0,51,0.00,,,0.00,492.000000,,2013-02-08 18:52:00,
2013-02-08 11:01:00,42.0,25.0,-100.00,WSW,252,6.0,13.0,51,0.00,,,0.00,492.000000,,2013-02-08 19:01:00,
2013-02-08 11:11:00,42.0,25.0,-100.00,WSW,252,6.0,13.0,51,0.00,,,0.00,492.000000,,2013-02-08 19:11:00,
2013-02-08 11:22:00,42.0,25.0,-100.00,WSW,252,6.0,13.0,51,0.00,,,0.00,492.000000,,2013-02-08 19:22:00,
2013-02-08 11:52:00,46.0,27.0,-100.00,SW,218,8.0,17.0,48,0.00,,,0.00,734.000000,,2013-02-08 19:52:00,
2013-02-08 12:01:00,46.0,27.0,-100.00,SW,218,8.0,17.0,48,0.00,,,0.00,734.000000,,2013-02-08 20:01:00,
2013-02-08 12:11:00,46.0,27.0,-100.00,SW,218,8.0,17.0,48,0.00,,,0.00,734.000000,,2013-02-08 20:11:00,
2013-02-08 12:21:00,46.0,27.0,-100.00,SW,218,8.0,17.0,48,0.00,,,0.00,734.000000,,2013-02-08 20:21:00,
2013-02-08 12:52:00,37.0,24.0,-100.00,SSW,204,4.0,21.0,58,0.01,,,0.01,259.000000,,2013-02-08 20:52:00,
2013-02-08 13:01:00,37.0,24.0,-100.00,SSW,204,4.0,21.0,58,0.01,,,0.01,259.000000,,2013-02-08 21:01:00,
2013-02-08 13:11:00,37.0,24.0,-100.00,SSW,204,4.0,21.0,58,0.01,,,0.01,259.000000,,2013-02-08 21:11:00,
2013-02-08 13:21:00,37.0,24.0,-100.00,SSW,204,4.0,21.0,58,0.01,,,0.01,259.000000,,2013-02-08 21:21:00,
2013-02-08 13:52:00,37.0,24.0,-100.00,South,172,6.0,14.0,58,0.01,,,0.02,276.000000,,2013-02-08 21:52:00,
2013-02-08 14:01:00,37.0,24.0,-100.00,South,172,6.0,14.0,58,0.01,,,0.02,276.000000,,2013-02-08 22:01:00,
2013-02-08 14:11:00,37.0,24.0,-100.00,South,172,6.0,14.0,58,0.01,,,0.02,276.000000,,2013-02-08 22:11:00,
2013-02-08 14:21:00,37.0,24.0,-100.00,South,172,6.0,14.0,58,0.01,,,0.02,276.000000,,2013-02-08 22:21:00,
2013-02-08 14:52:00,40.0,30.0,-100.00,South,171,6.0,14.0,67,0.01,,,0.03,311.000000,,2013-02-08 22:52:00,
2013-02-08 15:01:00,40.0,30.0,-100.00,South,171,6.0,14.0,67,0.01,,,0.03,311.000000,,2013-02-08 23:01:00,
2013-02-08 15:11:00,40.0,30.0,-100.00,South,171,6.0,14.0,67,0.01,,,0.03,311.000000,,2013-02-08 23:11:00,
2013-02-08 15:21:00,40.0,30.0,-100.00,South,171,6.0,14.0,67,0.01,,,0.03,311.000000,,2013-02-08 23:21:00,
2013-02-08 15:52:00,38.0,28.0,-100.00,ESE,103,2.0,11.0,68,0.02,,,0.05,169.000000,,2013-02-08 23:52:00,
2013-02-08 16:01:00,38.0,28.0,-100.00,ESE,103,2.0,11.0,68,0.02,,,0.05,169.000000,,2013-02-09 00:01:00,
2013-02-08 16:11:00,38.0,28.0,-100.00,ESE,103,2.0,11.0,68,0.02,,,0.05,169.000000,,2013-02-09 00:11:00,
2013-02-08 16:21:00,38.0,28.0,-100.00,ESE,103,2.0,11.0,68,0.02,,,0.05,169.000000,,2013-02-09 00:21:00,
2013-02-08 16:52:00,35.0,22.0,-100.00,NNE,23,8.0,13.0,58,0.00,,,-99.99,176.000000,,2013-02-09 00:52:00,
2013-02-08 17:01:00,35.0,22.0,-100.00,NNE,23,8.0,13.0,58,0.00,,,-99.99,176.000000,,2013-02-09 01:01:00,
2013-02-08 17:52:00,33.0,20.0,-100.00,SSE,151,3.0,11.0,59,0.00,,,0.05,51.000000,,2013-02-09 01:52:00,
2013-02-08 18:01:00,33.0,20.0,-100.00,SSE,151,3.0,11.0,59,0.00,,,0.05,51.000000,,2013-02-09 02:01:00,
2013-02-08 18:52:00,34.0,21.0,-100.00,NNE,32,3.0,9.0,59,0.00,,,-99.99,1.000000,,2013-02-09 02:52:00,
2013-02-08 19:01:00,34.0,21.0,-100.00,NNE,32,3.0,9.0,59,0.00,,,-99.99,1.000000,,2013-02-09 03:01:00,
2013-02-08 19:52:00,36.0,23.0,-100.00,NNW,327,6.0,15.0,58,0.00,,,0.05,0.000000,,2013-02-09 03:52:00,
2013-02-08 20:02:00,36.0,23.0,-100.00,NNW,327,6.0,15.0,58,0.00,,,0.05,0.000000,,2013-02-09 04:02:00,
2013-02-08 20:11:00,36.0,23.0,-100.00,NNW,327,6.0,15.0,58,0.00,,,0.05,0.000000,,2013-02-09 04:11:00,
2013-02-08 20:22:00,36.0,23.0,-100.00,NNW,327,6.0,15.0,58,0.00,,,0.05,0.000000,,2013-02-09 04:22:00,
2013-02-08 20:52:00,34.0,21.0,-100.00,WNW,284,7.0,15.0,58,0.00,,,0.05,0.000000,,2013-02-09 04:52:00,
2013-02-08 21:02:00,34.0,21.0,-100.00,WNW,284,7.0,15.0,58,0.00,,,0.05,0.000000,,2013-02-09 05:02:00,
2013-02-08 21:12:00,34.0,21.0,-100.00,WNW,284,7.0,15.0,58,0.00,,,0.05,0.000000,,2013-02-09 05:12:00,
2013-02-08 21:22:00,34.0,21.0,-100.00,WNW,284,7.0,15.0,58,0.00,,,0.05,0.000000,,2013-02-09 05:22:00,
2013-02-08 21:52:00,36.0,23.0,-100.00,WNW,295,6.0,15.0,58,0.00,,,0.05,0.000000,,2013-02-09 05:52:00,
2013-02-08 22:01:00,36.0,23.0,-100.00,WNW,295,6.0,15.0,58,0.00,,,0.05,0.000000,,2013-02-09 06:01:00,
2013-02-08 22:11:00,36.0,23.0,-100.00,WNW,295,6.0,15.0,58,0.00,,,0.05,0.000000,,2013-02-09 06:11:00,
2013-02-08 22:21:00,36.0,23.0,-100.00,WNW,295,6.0,15.0,58,0.00,,,0.05,0.000000,,2013-02-09 06:21:00,
2013-02-08 22:52:00,36.0,23.0,-100.00,WSW,238,7.0,24.0,58,0.00,,,0.05,0.000000,,2013-02-09 06:52:00,
2013-02-08 23:01:00,36.0,23.0,-100.00,WSW,238,7.0,24.0,58,0.00,,,0.05,0.000000,,2013-02-09 07:01:00,
2013-02-08 23:11:00,36.0,23.0,-100.00,WSW,238,7.0,24.0,58,0.00,,,0.05,0.000000,,2013-02-09 07:11:00,
2013-02-08 23:21:00,36.0,23.0,-100.00,WSW,238,7.0,24.0,58,0.00,,,0.05,0.000000,,2013-02-09 07:21:00,
2013-02-08 23:52:00,36.0,23.0,-100.00,ENE,78,7.0,17.0,58,0.00,,,0.05,0.000000,,2013-02-09 07:52:00,